CYBW/YBW METAR and TAF weather

Enter ICAO airport designator
Station Type Date Time Source
CYBW METAR 2019/11/13 02:00 UTC NOAA

CYBW 130200Z AUTO 27004KT 9SM BKN150 OVC200 00/M03 A2983 RMK SLP145


Station Type Date Time Source
CYBW Decoded METAR 2019/11/13 02:00 UTC NOAA

Calgary / Springbank, Canada (CYBW) 51-06N 114-22W
Nov 12, 2019 - 09:00 PM EST / 2019.11.13 0200 UTC
Wind: from the W (270 degrees) at 5 MPH (4 KT):0
Visibility: 9 mile(s):0
Sky conditions: overcast
Temperature: 32 F (0 C)
Windchill: 26 F (-3 C):1
Dew Point: 26 F (-3 C)
Relative Humidity: 80%
Pressure (altimeter): 29.83 in. Hg (1010 hPa)
ob: CYBW 130200Z AUTO 27004KT 9SM BKN150 OVC200 00/M03 A2983 RMK SLP145
cycle: 2

Station Type Date Time Source
CYBW TAF 2019/11/12 18:00 UTC NOAA

TAF CYBW 121738Z 1218/1305 22008KT P6SM FEW030 OVC060
TEMPO 1218/1224 P6SM -SHRA BKN030 OVC050
BECMG 1219/1221 29006KT
FM130000 31008KT P6SM SCT040 BKN120
RMK FCST BASED ON AUTO OBS. NXT FCST BY 130000Z

Example: see airport list